createdAt,value
2023-12-24T00:01:18.345Z,0.80
2023-12-24T00:03:45.910Z,1.10
2023-12-24T00:06:13.864Z,0.83
2023-12-24T00:08:42.896Z,0.30
2023-12-24T00:11:10.564Z,1.27
2023-12-24T00:13:38.063Z,1.30
2023-12-24T00:16:06.318Z,0.30
2023-12-24T00:18:33.930Z,0.43
2023-12-24T00:21:01.563Z,0.30
2023-12-24T00:23:29.142Z,0.33
2023-12-24T00:25:58.186Z,0.30
2023-12-24T00:28:25.750Z,0.23
2023-12-24T00:30:53.294Z,0.30
2023-12-24T00:33:21.071Z,1.07
2023-12-24T00:35:49.377Z,0.27
2023-12-24T00:38:17.432Z,0.40
2023-12-24T00:40:45.130Z,0.30
2023-12-24T00:43:13.988Z,0.40
2023-12-24T00:45:41.526Z,0.33
2023-12-24T00:48:10.810Z,0.37
2023-12-24T00:50:38.476Z,0.30
2023-12-24T00:53:06.113Z,0.27
2023-12-24T00:55:33.907Z,0.27
2023-12-24T00:58:01.450Z,1.00
2023-12-24T01:00:30.338Z,0.83
2023-12-24T01:02:57.885Z,1.43
2023-12-24T01:05:25.824Z,0.40
2023-12-24T01:07:53.387Z,0.87
2023-12-24T01:10:19.965Z,0.63
2023-12-24T01:12:47.593Z,0.50
2023-12-24T01:15:15.641Z,0.43
2023-12-24T01:17:44.807Z,0.50
2023-12-24T01:20:16.303Z,0.37
2023-12-24T01:22:44.386Z,0.60
2023-12-24T01:25:11.960Z,0.67
2023-12-24T01:27:39.517Z,1.50
2023-12-24T01:30:08.575Z,0.40
2023-12-24T01:32:36.255Z,0.50
2023-12-24T01:35:05.870Z,0.47
2023-12-24T01:37:33.631Z,0.90
2023-12-24T01:40:01.184Z,0.43
2023-12-24T01:42:28.722Z,0.67
2023-12-24T01:44:56.256Z,0.67
2023-12-24T01:47:24.113Z,0.50
2023-12-24T01:49:52.147Z,0.53
2023-12-24T01:52:21.233Z,0.77
2023-12-24T01:54:50.168Z,1.13
2023-12-24T01:57:18.491Z,1.23
2023-12-24T01:59:46.314Z,0.50
2023-12-24T02:02:15.027Z,0.60
2023-12-24T02:04:43.067Z,1.17
2023-12-24T02:07:13.052Z,0.70
2023-12-24T02:09:44.033Z,0.43
2023-12-24T02:12:11.523Z,0.50
2023-12-24T02:14:39.173Z,1.70
2023-12-24T02:17:08.733Z,1.00
2023-12-24T02:19:36.389Z,0.60
2023-12-24T02:22:05.627Z,1.70
2023-12-24T02:24:33.245Z,0.70
2023-12-24T02:27:12.306Z,0.87
2023-12-24T02:29:45.270Z,1.23
2023-12-24T02:32:15.829Z,0.90
2023-12-24T02:34:44.915Z,0.43
2023-12-24T02:37:15.170Z,0.47
2023-12-24T02:39:44.001Z,1.07
2023-12-24T02:42:12.137Z,0.70
2023-12-24T02:44:40.400Z,0.57
2023-12-24T02:47:08.077Z,0.70
2023-12-24T02:49:35.709Z,0.93
2023-12-24T02:52:03.281Z,0.77
2023-12-24T02:54:32.145Z,1.23
2023-12-24T02:56:59.682Z,0.37
2023-12-24T02:59:29.261Z,0.53
2023-12-24T03:01:57.033Z,0.43
2023-12-24T03:04:24.590Z,0.30
2023-12-24T03:06:52.138Z,0.53
2023-12-24T03:09:19.836Z,0.47
2023-12-24T03:11:48.733Z,1.47
2023-12-24T03:14:16.317Z,0.40
2023-12-24T03:16:43.844Z,0.67
2023-12-24T03:19:11.455Z,0.40
2023-12-24T03:21:41.893Z,0.47
2023-12-24T03:24:09.689Z,0.60
2023-12-24T03:26:37.295Z,0.77
2023-12-24T03:29:06.347Z,0.93
2023-12-24T03:31:33.925Z,1.00
2023-12-24T03:34:01.577Z,0.70
2023-12-24T03:36:29.252Z,0.70
2023-12-24T03:38:56.789Z,2.17
2023-12-24T03:41:24.311Z,0.73
2023-12-24T03:43:51.863Z,1.00
2023-12-24T03:46:21.993Z,1.00
2023-12-24T03:48:49.905Z,1.30
2023-12-24T03:51:19.300Z,1.07
2023-12-24T03:53:46.888Z,1.17
2023-12-24T03:56:14.484Z,1.00
2023-12-24T03:58:41.997Z,1.13
2023-12-24T04:01:10.604Z,0.60
2023-12-24T04:03:40.175Z,0.77
2023-12-24T04:06:11.869Z,1.03
2023-12-24T04:08:39.539Z,1.10
2023-12-24T04:11:13.431Z,1.40
2023-12-24T04:13:41.204Z,1.33
2023-12-24T04:16:09.289Z,0.80
2023-12-24T04:18:37.341Z,2.30
2023-12-24T04:21:06.458Z,1.53
2023-12-24T04:23:34.021Z,1.87
2023-12-24T04:26:01.617Z,1.23
2023-12-24T04:28:29.166Z,1.23
2023-12-24T04:30:56.733Z,0.90
2023-12-24T04:33:24.384Z,2.00
2023-12-24T04:35:51.976Z,1.20
2023-12-24T04:38:20.859Z,1.07
2023-12-24T04:40:48.355Z,1.53
2023-12-24T04:43:16.348Z,1.37
2023-12-24T04:45:43.893Z,1.10
2023-12-24T04:48:11.493Z,1.53
2023-12-24T04:50:39.349Z,1.37
2023-12-24T04:53:06.973Z,1.47
2023-12-24T04:55:36.486Z,1.90
2023-12-24T04:58:04.289Z,1.53
2023-12-24T05:00:31.854Z,1.83
2023-12-24T05:02:59.435Z,1.30
2023-12-24T05:05:27.166Z,1.30
2023-12-24T05:07:54.693Z,2.03
2023-12-24T05:10:22.224Z,1.17
2023-12-24T05:12:51.475Z,1.20
2023-12-24T05:15:19.330Z,0.70
2023-12-24T05:17:47.061Z,1.80
2023-12-24T05:20:14.875Z,1.40
2023-12-24T05:22:42.415Z,0.93
2023-12-24T05:25:10.198Z,1.50
2023-12-24T05:27:39.439Z,0.90
2023-12-24T05:30:09.478Z,0.60
2023-12-24T05:32:37.289Z,1.53
2023-12-24T05:35:07.035Z,2.67
2023-12-24T05:37:34.535Z,0.57
2023-12-24T05:40:02.078Z,0.73
2023-12-24T05:42:29.590Z,0.60
2023-12-24T05:44:57.185Z,0.90
2023-12-24T05:47:26.134Z,0.40
2023-12-24T05:49:53.653Z,0.50
2023-12-24T05:52:20.237Z,0.70
2023-12-24T05:54:47.788Z,0.83
2023-12-24T05:57:15.264Z,0.60
2023-12-24T05:59:42.836Z,0.57
2023-12-24T06:02:10.448Z,0.47
2023-12-24T06:04:39.324Z,1.07
2023-12-24T06:07:06.899Z,1.13
2023-12-24T06:09:34.693Z,0.70
2023-12-24T06:12:02.262Z,0.50
2023-12-24T06:14:29.888Z,0.80
2023-12-24T06:16:57.489Z,1.13
2023-12-24T06:19:25.216Z,1.13
2023-12-24T06:21:54.195Z,0.83
2023-12-24T06:24:22.476Z,0.50
2023-12-24T06:26:50.030Z,0.50
2023-12-24T06:29:17.616Z,1.63
2023-12-24T06:31:45.433Z,0.47
2023-12-24T06:34:13.810Z,0.40
2023-12-24T06:36:41.373Z,0.80
2023-12-24T06:39:10.228Z,1.70
2023-12-24T06:41:37.789Z,0.40
2023-12-24T06:44:05.561Z,0.43
2023-12-24T06:46:33.126Z,1.13
2023-12-24T06:49:00.770Z,0.93
2023-12-24T06:51:28.361Z,1.60
2023-12-24T06:53:55.855Z,0.40
2023-12-24T06:56:24.703Z,0.70
2023-12-24T06:58:52.211Z,0.47
2023-12-24T07:01:19.885Z,0.50
2023-12-24T07:03:47.528Z,0.50
2023-12-24T07:06:15.089Z,0.60
2023-12-24T07:08:42.669Z,0.60
2023-12-24T07:11:10.893Z,1.13
2023-12-24T07:13:39.743Z,0.40
2023-12-24T07:16:09.307Z,0.37
2023-12-24T07:18:36.873Z,0.83
2023-12-24T07:21:04.543Z,0.37
2023-12-24T07:23:32.033Z,0.70
2023-12-24T07:25:59.578Z,0.37
2023-12-24T07:28:27.113Z,0.50
2023-12-24T07:30:56.349Z,0.63
2023-12-24T07:33:24.119Z,0.57
2023-12-24T07:35:51.973Z,0.50
2023-12-24T07:38:19.489Z,0.50
2023-12-24T07:40:46.970Z,1.73
2023-12-24T07:43:14.496Z,0.57
2023-12-24T07:45:44.324Z,0.40
2023-12-24T07:48:13.769Z,0.40
2023-12-24T07:50:41.471Z,0.30
2023-12-24T07:53:09.132Z,0.23
2023-12-24T07:55:36.652Z,0.37
2023-12-24T07:58:04.424Z,0.40
2023-12-24T08:00:32.217Z,0.40
2023-12-24T08:02:59.980Z,0.40
2023-12-24T08:05:29.019Z,0.67
2023-12-24T08:07:56.587Z,0.40
2023-12-24T08:10:24.090Z,0.50
2023-12-24T08:12:54.533Z,0.60
2023-12-24T08:15:26.995Z,0.50
2023-12-24T08:17:54.807Z,0.80
2023-12-24T08:20:22.749Z,0.40
2023-12-24T08:22:51.840Z,0.57
2023-12-24T08:25:19.708Z,0.47
2023-12-24T08:27:47.226Z,1.00
2023-12-24T08:30:15.530Z,0.60
2023-12-24T08:32:43.159Z,0.53
2023-12-24T08:35:12.579Z,0.80
2023-12-24T08:37:40.104Z,0.30
2023-12-24T08:40:10.306Z,0.40
2023-12-24T08:42:37.799Z,0.43
2023-12-24T08:45:06.224Z,0.50
2023-12-24T08:50:01.393Z,0.50
2023-12-24T08:52:29.046Z,0.40
2023-12-24T08:54:56.506Z,0.30
2023-12-24T08:57:25.337Z,0.50
2023-12-24T08:59:52.844Z,0.50
2023-12-24T09:02:21.263Z,0.87
2023-12-24T09:04:49.132Z,0.43
2023-12-24T09:07:17.109Z,0.30
2023-12-24T09:09:44.691Z,0.33
2023-12-24T09:12:12.228Z,0.33
2023-12-24T09:14:41.161Z,0.40
2023-12-24T09:17:08.726Z,0.40
2023-12-24T09:19:36.275Z,0.40
2023-12-24T09:22:03.826Z,1.03
2023-12-24T09:24:31.377Z,0.60
2023-12-24T09:26:59.032Z,0.50
2023-12-24T09:29:26.546Z,0.37
2023-12-24T09:31:55.397Z,0.40
2023-12-24T09:34:23.081Z,0.90
2023-12-24T09:36:50.627Z,0.53
2023-12-24T09:39:18.116Z,0.50
2023-12-24T09:41:45.713Z,0.50
2023-12-24T09:44:13.258Z,0.83
2023-12-24T09:46:40.776Z,0.50
2023-12-24T09:49:09.674Z,1.07
2023-12-24T09:51:37.450Z,0.90
2023-12-24T09:54:06.434Z,0.80
2023-12-24T09:56:33.942Z,0.50
2023-12-24T09:59:05.580Z,0.53
2023-12-24T10:01:42.070Z,0.50
2023-12-24T10:04:11.153Z,0.50
2023-12-24T10:06:53.654Z,1.03
2023-12-24T10:09:22.824Z,0.77
2023-12-24T10:12:05.917Z,1.23
2023-12-24T10:14:33.823Z,0.40
2023-12-24T10:17:02.604Z,0.50
2023-12-24T10:19:33.478Z,0.57
2023-12-24T10:22:03.211Z,0.97
2023-12-24T10:24:31.738Z,0.47
2023-12-24T10:27:06.627Z,0.47
2023-12-24T10:29:34.985Z,0.40
2023-12-24T10:32:02.821Z,0.30
2023-12-24T10:34:33.996Z,0.37
2023-12-24T10:37:18.882Z,0.50
2023-12-24T10:39:46.606Z,0.30
2023-12-24T10:42:14.135Z,0.50
2023-12-24T10:44:41.709Z,0.40
2023-12-24T10:47:09.416Z,0.30
2023-12-24T10:49:38.341Z,0.40
2023-12-24T10:52:06.962Z,0.50
2023-12-24T10:54:36.027Z,0.50
2023-12-24T10:57:18.075Z,0.40
2023-12-24T11:00:07.896Z,0.40
2023-12-24T11:02:37.317Z,0.80
2023-12-24T11:05:08.075Z,0.40
2023-12-24T11:07:51.239Z,0.40
2023-12-24T11:10:40.451Z,0.30
2023-12-24T11:13:13.251Z,0.77
2023-12-24T11:15:42.589Z,0.20
2023-12-24T11:18:11.325Z,0.33
2023-12-24T11:20:44.279Z,1.10
2023-12-24T11:23:17.179Z,0.70
2023-12-24T11:25:46.786Z,0.30
2023-12-24T11:28:22.905Z,0.30
2023-12-24T11:31:11.502Z,0.40
2023-12-24T11:33:49.635Z,0.50
2023-12-24T11:36:20.409Z,0.30
2023-12-24T11:38:51.390Z,0.73
2023-12-24T11:41:20.578Z,0.50
2023-12-24T11:43:56.797Z,0.47
2023-12-24T11:46:25.152Z,0.30
2023-12-24T11:48:54.859Z,0.80
2023-12-24T11:51:28.231Z,0.60
2023-12-24T11:54:04.402Z,0.47
2023-12-24T11:56:33.337Z,0.70
2023-12-24T11:59:02.077Z,1.03
2023-12-24T12:01:31.753Z,0.70
2023-12-24T12:04:01.349Z,0.67
2023-12-24T12:06:31.138Z,0.50
2023-12-24T12:08:59.844Z,0.70
2023-12-24T12:11:27.372Z,0.60
2023-12-24T12:13:55.088Z,0.73
2023-12-24T12:16:22.635Z,0.70
2023-12-24T12:18:50.139Z,0.60
2023-12-24T12:21:17.669Z,0.60
2023-12-24T12:23:46.885Z,0.70
2023-12-24T12:26:14.815Z,1.33
2023-12-24T12:28:42.331Z,0.50
2023-12-24T12:31:09.841Z,0.50
2023-12-24T12:33:37.475Z,0.50
2023-12-24T12:36:08.321Z,0.63
2023-12-24T12:38:36.473Z,0.80
2023-12-24T12:41:06.069Z,0.63
2023-12-24T12:43:34.161Z,1.67
2023-12-24T12:46:03.175Z,0.60
2023-12-24T12:48:30.880Z,0.70
2023-12-24T12:50:58.844Z,0.70
2023-12-24T12:53:27.181Z,0.97
2023-12-24T12:56:02.263Z,0.60
2023-12-24T12:58:31.535Z,0.50
2023-12-24T13:00:59.736Z,0.67
2023-12-24T13:03:27.324Z,0.47
2023-12-24T13:05:56.055Z,1.03
2023-12-24T13:08:23.826Z,0.57
2023-12-24T13:10:51.644Z,0.67
2023-12-24T13:13:21.641Z,1.17
2023-12-24T13:16:04.284Z,0.83
2023-12-24T13:18:32.188Z,1.00
2023-12-24T13:21:03.470Z,0.77
2023-12-24T13:23:31.637Z,0.70
2023-12-24T13:25:59.317Z,0.93
2023-12-24T13:28:27.174Z,0.70
2023-12-24T13:30:56.875Z,0.70
2023-12-24T13:33:24.725Z,0.70
2023-12-24T13:35:52.470Z,0.60
2023-12-24T13:38:21.882Z,0.70
2023-12-24T13:40:50.081Z,0.73
2023-12-24T13:43:17.681Z,0.60
2023-12-24T13:45:45.334Z,1.00
2023-12-24T13:48:14.579Z,0.80
2023-12-24T13:50:43.373Z,0.60
2023-12-24T13:53:19.687Z,0.77
2023-12-24T13:55:57.900Z,0.50
2023-12-24T13:58:25.512Z,0.87
2023-12-24T14:00:53.342Z,0.50
2023-12-24T14:03:23.098Z,0.60
2023-12-24T14:05:51.353Z,1.07
2023-12-24T14:08:18.975Z,0.60
2023-12-24T14:10:46.635Z,0.60
2023-12-24T14:13:14.213Z,0.77
2023-12-24T14:15:41.809Z,0.70
2023-12-24T14:18:09.486Z,2.83
2023-12-24T14:20:38.490Z,0.90
2023-12-24T14:23:06.246Z,0.60
2023-12-24T14:25:33.782Z,1.13
2023-12-24T14:28:01.287Z,0.83
2023-12-24T14:30:28.829Z,0.60
2023-12-24T14:32:56.695Z,1.00
2023-12-24T14:35:24.554Z,0.63
2023-12-24T14:37:53.414Z,0.73
2023-12-24T14:40:22.765Z,0.70
2023-12-24T14:42:50.492Z,1.03
2023-12-24T14:45:18.606Z,0.70
2023-12-24T14:47:46.616Z,0.70
2023-12-24T14:50:14.295Z,0.70
2023-12-24T14:52:41.834Z,1.03
2023-12-24T14:55:11.231Z,0.73
2023-12-24T14:57:38.907Z,0.60
2023-12-24T15:00:07.505Z,0.77
2023-12-24T15:02:35.530Z,0.90
2023-12-24T15:05:04.325Z,1.00
2023-12-24T15:07:34.249Z,0.80
2023-12-24T15:10:01.831Z,0.80
2023-12-24T15:12:30.953Z,1.33
2023-12-24T15:14:58.461Z,0.80
2023-12-24T15:17:28.988Z,0.93
2023-12-24T15:19:57.310Z,1.00
2023-12-24T15:22:25.337Z,1.20
2023-12-24T15:24:52.894Z,0.93
2023-12-24T15:27:20.442Z,0.83
2023-12-24T15:29:49.725Z,1.10
2023-12-24T15:32:17.462Z,1.07
2023-12-24T15:34:45.507Z,2.60
2023-12-24T15:37:13.182Z,1.37
2023-12-24T15:39:41.191Z,1.20
2023-12-24T15:42:08.816Z,1.00
2023-12-24T15:44:36.362Z,0.80
2023-12-24T15:47:05.509Z,0.67
2023-12-24T15:49:33.077Z,0.80
2023-12-24T15:51:59.686Z,1.43
2023-12-24T15:54:27.308Z,0.77
2023-12-24T15:56:54.898Z,0.80
2023-12-24T15:59:22.486Z,0.53
2023-12-24T16:01:51.379Z,0.80
2023-12-24T16:04:20.307Z,1.10
2023-12-24T16:06:48.069Z,1.77
2023-12-24T16:09:15.604Z,0.87
2023-12-24T16:11:43.297Z,0.70
2023-12-24T16:14:11.145Z,0.83
2023-12-24T16:16:38.681Z,1.07
2023-12-24T16:19:08.947Z,1.07
2023-12-24T16:21:41.798Z,0.90
2023-12-24T16:24:09.736Z,0.50
2023-12-24T16:26:37.461Z,1.20
2023-12-24T16:29:05.047Z,0.70
2023-12-24T16:31:32.532Z,0.83
2023-12-24T16:34:00.162Z,0.60
2023-12-24T16:36:27.827Z,1.40
2023-12-24T16:38:56.714Z,0.63
2023-12-24T16:41:24.801Z,0.57
2023-12-24T16:43:52.665Z,0.90
2023-12-24T16:46:21.676Z,0.70
2023-12-24T16:48:49.638Z,0.80
2023-12-24T16:51:17.965Z,0.83
2023-12-24T16:53:45.764Z,0.60
2023-12-24T16:56:15.289Z,0.73
2023-12-24T16:58:43.347Z,1.00
2023-12-24T17:01:11.129Z,0.50
2023-12-24T17:03:39.166Z,0.93
2023-12-24T17:06:08.588Z,0.70
2023-12-24T17:08:37.438Z,1.00
2023-12-24T17:11:06.382Z,1.10
2023-12-24T17:13:35.444Z,1.17
2023-12-24T17:16:04.430Z,0.80
2023-12-24T17:18:32.799Z,0.80
2023-12-24T17:21:00.875Z,0.80
2023-12-24T17:23:28.440Z,1.13
2023-12-24T17:25:56.054Z,0.63
2023-12-24T17:28:23.560Z,0.80
2023-12-24T17:30:52.530Z,0.70
2023-12-24T17:33:20.258Z,0.63
2023-12-24T17:35:47.918Z,1.00
2023-12-24T17:38:15.964Z,1.53
2023-12-24T17:40:43.646Z,0.80
2023-12-24T17:43:11.212Z,1.77
2023-12-24T17:45:38.701Z,1.40
2023-12-24T17:48:13.973Z,0.80
2023-12-24T17:50:47.418Z,2.23
2023-12-24T17:53:15.298Z,0.80
2023-12-24T17:55:42.935Z,1.50
2023-12-24T17:58:10.658Z,1.03
2023-12-24T18:00:38.745Z,0.87
2023-12-24T18:03:09.430Z,1.20
2023-12-24T18:05:37.051Z,0.80
2023-12-24T18:08:05.256Z,2.07
2023-12-24T18:10:32.798Z,1.03
2023-12-24T18:13:00.322Z,1.17
2023-12-24T18:15:28.245Z,1.13
2023-12-24T18:17:55.831Z,1.83
2023-12-24T18:20:25.043Z,2.30
2023-12-24T18:22:53.385Z,1.03
2023-12-24T18:25:21.003Z,1.57
2023-12-24T18:27:49.615Z,1.67
2023-12-24T18:30:17.249Z,1.57
2023-12-24T18:32:45.025Z,1.00
2023-12-24T18:35:12.876Z,2.10
2023-12-24T18:37:41.868Z,1.40
2023-12-24T18:40:10.317Z,1.17
2023-12-24T18:42:37.886Z,1.67
2023-12-24T18:45:06.298Z,2.30
2023-12-24T18:47:34.329Z,1.30
2023-12-24T18:50:02.911Z,2.73
2023-12-24T18:52:31.745Z,1.53
2023-12-24T18:55:01.262Z,1.57
2023-12-24T18:57:29.452Z,1.83
2023-12-24T18:59:57.800Z,1.53
2023-12-24T19:02:25.441Z,1.77
2023-12-24T19:04:53.259Z,1.73
2023-12-24T19:07:20.828Z,2.13
2023-12-24T19:09:48.458Z,1.13
2023-12-24T19:12:19.095Z,2.63
2023-12-24T19:14:46.962Z,1.93
2023-12-24T19:17:14.954Z,1.27
2023-12-24T19:19:42.617Z,1.90
2023-12-24T19:22:10.854Z,3.30
2023-12-24T19:24:38.375Z,1.10
2023-12-24T19:27:07.303Z,2.07
2023-12-24T19:29:36.210Z,1.97
2023-12-24T19:32:03.796Z,2.70
2023-12-24T19:34:31.325Z,3.13
2023-12-24T19:37:02.588Z,2.00
2023-12-24T19:39:34.290Z,2.03
2023-12-24T19:42:03.616Z,1.73
2023-12-24T19:44:32.942Z,2.20
2023-12-24T19:47:02.737Z,1.93
2023-12-24T19:49:31.577Z,2.30
2023-12-24T19:51:59.149Z,2.63
2023-12-24T19:54:26.694Z,2.87
2023-12-24T19:56:54.305Z,2.80
2023-12-24T19:59:21.877Z,2.47
2023-12-24T20:01:49.407Z,3.33
2023-12-24T20:04:18.409Z,3.20
2023-12-24T20:06:45.980Z,2.97
2023-12-24T20:09:13.925Z,3.57
2023-12-24T20:11:41.580Z,3.33
2023-12-24T20:14:09.528Z,6.17
2023-12-24T20:16:37.092Z,3.47
2023-12-24T20:19:04.733Z,2.50
2023-12-24T20:21:33.776Z,3.33
2023-12-24T20:24:01.313Z,2.73
2023-12-24T20:26:28.895Z,3.60
2023-12-24T20:28:56.444Z,1.97
2023-12-24T20:31:24.023Z,2.83
2023-12-24T20:33:51.933Z,3.17
2023-12-24T20:36:19.537Z,3.17
2023-12-24T20:38:48.469Z,2.57
2023-12-24T20:41:16.447Z,3.90
2023-12-24T20:43:43.982Z,3.80
2023-12-24T20:46:11.624Z,3.20
2023-12-24T20:48:40.016Z,3.77
2023-12-24T20:51:07.728Z,3.47
2023-12-24T20:53:35.358Z,3.03
2023-12-24T20:56:04.487Z,3.53
2023-12-24T20:58:32.019Z,2.83
2023-12-24T21:00:59.571Z,3.70
2023-12-24T21:03:29.065Z,4.97
2023-12-24T21:05:58.670Z,3.47
2023-12-24T21:08:25.344Z,2.87
2023-12-24T21:10:52.909Z,3.90
2023-12-24T21:13:21.947Z,3.53
2023-12-24T21:15:49.903Z,4.10
2023-12-24T21:18:17.790Z,3.10
2023-12-24T21:20:46.393Z,2.60
2023-12-24T21:23:14.286Z,3.20
2023-12-24T21:25:41.988Z,3.50
2023-12-24T21:28:09.585Z,3.40
2023-12-24T21:30:38.546Z,4.03
2023-12-24T21:33:06.427Z,4.07
2023-12-24T21:35:34.061Z,6.33
2023-12-24T21:38:01.675Z,2.70
2023-12-24T21:40:29.286Z,3.97
2023-12-24T21:42:56.885Z,4.40
2023-12-24T21:45:24.768Z,3.97
2023-12-24T21:47:53.977Z,3.20
2023-12-24T21:50:21.928Z,4.50
2023-12-24T21:52:49.471Z,5.27
2023-12-24T21:55:17.093Z,5.90
2023-12-24T21:57:44.631Z,5.97
2023-12-24T22:00:12.510Z,3.63
2023-12-24T22:02:40.065Z,3.97
2023-12-24T22:05:09.245Z,5.20
2023-12-24T22:07:36.764Z,3.73
2023-12-24T22:10:04.754Z,3.97
2023-12-24T22:12:32.325Z,3.83
2023-12-24T22:14:59.895Z,3.73
2023-12-24T22:17:27.680Z,3.87
2023-12-24T22:19:55.244Z,4.47
2023-12-24T22:22:24.301Z,4.77
2023-12-24T22:24:51.784Z,4.17
2023-12-24T22:27:19.279Z,5.57
2023-12-24T22:29:46.903Z,5.37
2023-12-24T22:32:14.536Z,5.03
2023-12-24T22:34:42.532Z,4.33
2023-12-24T22:37:11.754Z,4.43
2023-12-24T22:39:40.766Z,4.47
2023-12-24T22:42:08.329Z,4.23
2023-12-24T22:44:35.854Z,3.57
2023-12-24T22:47:03.713Z,5.23
2023-12-24T22:49:31.358Z,6.03
2023-12-24T22:51:58.875Z,5.83
2023-12-24T22:54:26.458Z,4.13
2023-12-24T22:56:55.449Z,5.87
2023-12-24T22:59:23.926Z,4.43
2023-12-24T23:01:52.420Z,4.30
2023-12-24T23:04:19.966Z,7.03
2023-12-24T23:06:48.012Z,4.70
2023-12-24T23:09:16.114Z,4.77
2023-12-24T23:11:43.657Z,4.17
2023-12-24T23:14:12.516Z,4.13
2023-12-24T23:16:40.372Z,3.67
2023-12-24T23:19:07.970Z,3.63
2023-12-24T23:21:36.922Z,4.63
2023-12-24T23:24:04.704Z,3.97
2023-12-24T23:26:32.343Z,4.77
2023-12-24T23:28:59.867Z,4.47
2023-12-24T23:31:28.688Z,3.80
2023-12-24T23:33:56.385Z,4.63
2023-12-24T23:36:24.429Z,3.90
2023-12-24T23:38:52.059Z,4.57
2023-12-24T23:41:19.694Z,4.50
2023-12-24T23:43:47.256Z,6.77
2023-12-24T23:46:14.772Z,6.87
2023-12-24T23:48:43.784Z,2.93
2023-12-24T23:51:11.461Z,4.43
2023-12-24T23:53:39.095Z,5.07
2023-12-24T23:56:11.568Z,4.53
2023-12-24T23:58:39.464Z,3.40
